Time;durP1;ratioP1;P1;durP2;ratioP2;P2;SDS_P1;SDS_P2;PMS_P1;PMS_P2;Temp;Humidity;BMP_temperature;BMP_pressure;BME280_temperature;BME280_humidity;BME280_pressure;Samples;Min_cycle;Max_cycle;Signal;HPM_P1;HPM_P2
2022/12/13 00:08:47;;;;;;;4.40;2.40;;;-7.40;99.90;;;;;;20028926;24;20055;-58
2022/12/13 00:18:52;;;;;;;3.30;1.80;;;-7.10;99.90;;;;;;20056321;24;20116;-56
2022/12/13 00:28:54;;;;;;;3.67;1.63;;;-6.80;99.90;;;;;;20051496;24;20067;-54
2022/12/13 00:39:02;;;;;;;2.40;1.33;;;-6.50;99.90;;;;;;20050131;24;20070;-57
2022/12/13 00:49:04;;;;;;;2.28;1.25;;;-6.30;99.90;;;;;;19988021;24;20529;-56
2022/12/13 00:59:07;;;;;;;2.50;1.20;;;-6.10;99.90;;;;;;20095144;24;20128;-54
2022/12/13 01:09:28;;;;;;;1.83;0.85;;;-6.30;99.90;;;;;;20045485;24;20579;-58
2022/12/13 01:19:31;;;;;;;1.67;0.90;;;-6.00;99.90;;;;;;20064549;24;20075;-54
2022/12/13 01:29:33;;;;;;;2.53;0.80;;;-5.80;99.90;;;;;;20068912;24;20435;-57
2022/12/13 01:39:34;;;;;;;2.57;1.00;;;-5.60;99.90;;;;;;20054950;24;20214;-55
2022/12/13 01:49:36;;;;;;;1.60;0.80;;;-5.30;99.90;;;;;;20021724;24;20063;-56
2022/12/13 01:59:41;;;;;;;2.42;1.00;;;-5.20;99.90;;;;;;20064703;24;20059;-57
2022/12/13 02:09:44;;;;;;;3.78;0.90;;;-5.30;99.90;;;;;;20062686;24;20055;-56
2022/12/13 02:20:07;;;;;;;1.95;0.80;;;-5.10;99.90;;;;;;20061458;24;20124;-59
2022/12/13 02:30:18;;;;;;;1.88;1.00;;;-5.00;99.90;;;;;;20058897;24;20055;-58
2022/12/13 02:40:32;;;;;;;1.95;1.15;;;-4.90;99.90;;;;;;20057742;24;20098;-56
2022/12/13 02:50:42;;;;;;;1.73;1.00;;;-4.80;99.90;;;;;;20049239;24;20103;31
2022/12/13 03:11:09;;;;;;;3.30;1.10;;;-4.50;99.90;;;;;;20008882;24;20121;-57
2022/12/13 03:21:11;;;;;;;2.15;1.30;;;-4.50;99.90;;;;;;20056749;24;20067;-58
2022/12/13 03:31:13;;;;;;;2.40;1.30;;;-4.40;99.90;;;;;;20060319;24;20451;-58
2022/12/13 03:41:19;;;;;;;2.72;1.48;;;-4.30;99.90;;;;;;20054889;24;20047;-52
2022/12/13 03:51:21;;;;;;;2.63;1.30;;;-4.20;99.90;;;;;;20057440;24;20046;-62
2022/12/13 04:01:23;;;;;;;2.47;1.42;;;-4.10;99.90;;;;;;20000595;24;20131;-59
2022/12/13 04:21:44;;;;;;;3.27;1.40;;;-4.00;99.90;;;;;;20061371;24;20492;-59
2022/12/13 04:31:46;;;;;;;1.50;0.98;;;-3.90;99.90;;;;;;20065756;24;20472;-58
2022/12/13 04:41:49;;;;;;;2.25;0.85;;;-3.80;99.90;;;;;;20064230;24;21097;-57
2022/12/13 04:51:58;;;;;;;3.05;1.05;;;-3.70;99.90;;;;;;20051156;24;20059;31
2022/12/13 05:01:59;;;;;;;2.05;1.17;;;-3.70;99.90;;;;;;20034840;24;20055;-56
2022/12/13 05:12:01;;;;;;;2.58;1.38;;;-3.70;99.90;;;;;;20063199;24;20066;-56
2022/12/13 05:22:03;;;;;;;2.60;1.40;;;-3.70;99.90;;;;;;20046825;24;20487;-54
2022/12/13 05:32:05;;;;;;;2.70;1.42;;;-3.60;99.90;;;;;;20070556;24;20062;-57
2022/12/13 05:42:09;;;;;;;2.33;1.40;;;-3.50;99.90;;;;;;20063769;24;20409;-54
2022/12/13 05:52:34;;;;;;;2.38;1.50;;;-3.40;99.90;;;;;;20035038;24;20476;-55
2022/12/13 06:02:37;;;;;;;3.30;1.65;;;-3.40;99.90;;;;;;20055177;24;20055;-58
2022/12/13 06:12:39;;;;;;;2.95;1.95;;;-3.40;99.90;;;;;;20057130;24;20699;-55
2022/12/13 06:22:40;;;;;;;4.10;2.20;;;-3.40;99.90;;;;;;20051848;24;20085;-58
2022/12/13 06:32:42;;;;;;;3.00;1.58;;;-3.30;99.90;;;;;;20047554;24;20328;-55
2022/12/13 06:42:46;;;;;;;3.40;1.75;;;-3.30;99.90;;;;;;20063383;24;20058;-58
2022/12/13 06:52:48;;;;;;;4.38;2.20;;;-3.10;99.90;;;;;;20017471;24;20058;-58
2022/12/13 07:02:53;;;;;;;2.55;1.60;;;-2.80;99.90;;;;;;20056896;24;20051;-53
2022/12/13 07:12:55;;;;;;;3.45;1.63;;;-2.70;99.90;;;;;;20051292;24;20063;-56
2022/12/13 07:22:57;;;;;;;3.15;1.90;;;-2.70;99.90;;;;;;20057007;24;20108;-49
2022/12/13 07:33:00;;;;;;;2.63;1.73;;;-2.70;99.90;;;;;;20064129;24;20119;-56
2022/12/13 07:43:02;;;;;;;2.55;1.70;;;-2.60;99.90;;;;;;20014661;24;20058;-59
2022/12/13 07:53:07;;;;;;;4.15;1.30;;;-2.40;99.90;;;;;;20046754;24;20114;-52
2022/12/13 08:03:09;;;;;;;2.22;1.23;;;-2.30;99.90;;;;;;20059549;24;20064;-57
2022/12/13 08:13:11;;;;;;;1.30;0.93;;;-2.30;99.90;;;;;;20052175;24;20502;-55
2022/12/13 08:23:13;;;;;;;2.72;1.48;;;-2.20;99.90;;;;;;20009233;24;1358186;-58
2022/12/13 08:33:15;;;;;;;3.63;1.80;;;-2.10;99.90;;;;;;20023604;24;20067;-60
2022/12/13 08:43:16;;;;;;;2.72;1.58;;;-1.90;99.90;;;;;;20047837;24;20063;-54
2022/12/13 08:53:18;;;;;;;3.58;1.23;;;-1.80;99.90;;;;;;20027257;24;20517;-60
2022/12/13 09:03:20;;;;;;;3.08;1.10;;;-1.60;99.90;;;;;;20059291;24;20468;-60
2022/12/13 09:13:21;;;;;;;4.55;2.10;;;-1.20;99.90;;;;;;20057927;24;20133;-60
2022/12/13 09:23:23;;;;;;;3.00;1.70;;;-1.10;99.90;;;;;;20028808;24;20120;-60
2022/12/13 09:33:25;;;;;;;4.63;2.60;;;-1.10;99.90;;;;;;20067546;24;20139;-54
2022/12/13 09:43:30;;;;;;;3.10;1.98;;;-1.20;99.90;;;;;;20066142;24;20054;-59
2022/12/13 09:53:32;;;;;;;4.45;2.00;;;-1.20;99.90;;;;;;20063176;24;20135;-54
2022/12/13 10:03:34;;;;;;;2.80;1.85;;;-1.00;99.90;;;;;;20050227;24;20077;-63
2022/12/13 10:24:32;;;;;;;4.03;1.88;;;-1.00;99.90;;;;;;20016287;24;20062;-56
2022/12/13 10:34:54;;;;;;;2.47;1.55;;;-1.00;99.90;;;;;;19978347;24;20094;-59
2022/12/13 10:45:19;;;;;;;4.25;1.75;;;-0.70;99.90;;;;;;19984078;24;20195;-49
2022/12/13 10:55:44;;;;;;;2.47;1.20;;;-0.30;99.90;;;;;;19966088;24;20070;-50
2022/12/13 11:06:13;;;;;;;2.15;1.50;;;0.20;99.90;;;;;;20018898;24;20066;-62
2022/12/13 11:16:24;;;;;;;2.92;1.67;;;0.60;99.90;;;;;;19997107;24;20438;-49
2022/12/13 11:26:41;;;;;;;2.92;1.85;;;0.50;99.90;;;;;;20001543;24;20507;-53
2022/12/13 11:37:07;;;;;;;2.90;1.77;;;0.40;99.90;;;;;;20056360;24;20115;-59
2022/12/13 11:47:25;;;;;;;2.90;1.90;;;0.10;99.90;;;;;;20042639;24;20063;-52
2022/12/13 11:57:41;;;;;;;2.85;1.90;;;0.00;99.90;;;;;;20051530;24;20490;-59
2022/12/13 12:07:52;;;;;;;2.92;2.00;;;-0.10;99.90;;;;;;20830201;24;20115;-53
2022/12/13 12:17:55;;;;;;;3.47;1.90;;;0.00;99.90;;;;;;20046784;24;20580;-60
2022/12/13 12:28:26;;;;;;;2.92;1.77;;;0.10;99.90;;;;;;20056062;24;20067;-50
2022/12/13 12:38:43;;;;;;;3.08;1.73;;;-0.10;99.90;;;;;;20077574;24;20058;-61
2022/12/13 12:49:15;;;;;;;3.37;1.90;;;-0.30;99.90;;;;;;20094852;24;20067;-55
2022/12/13 12:59:31;;;;;;;2.70;1.85;;;-0.30;99.90;;;;;;20053582;24;20042;-60
2022/12/13 13:09:38;;;;;;;2.92;1.90;;;-0.30;99.90;;;;;;20052862;24;20100;31
2022/12/13 13:19:41;;;;;;;3.22;2.38;;;-0.30;99.90;;;;;;20001140;24;20058;-55
2022/12/13 13:29:43;;;;;;;4.32;2.30;;;-0.50;99.90;;;;;;20062061;24;20055;-60
2022/12/13 13:40:12;;;;;;;3.97;2.72;;;-0.70;99.90;;;;;;20066304;24;20124;-51
2022/12/13 13:50:47;;;;;;;6.47;3.10;;;-0.90;99.90;;;;;;20061847;24;20066;-60
2022/12/13 14:01:07;;;;;;;4.22;2.08;;;-1.20;99.90;;;;;;20049872;24;20363;-52
2022/12/13 14:11:20;;;;;;;2.92;1.70;;;-1.10;99.90;;;;;;20055610;24;20575;-59
2022/12/13 14:21:48;;;;;;;3.55;2.55;;;-1.10;99.90;;;;;;20623270;24;20058;-59
2022/12/13 14:31:50;;;;;;;4.20;2.40;;;-1.30;99.90;;;;;;20065058;24;20103;-49
2022/12/13 14:52:46;;;;;;;3.78;2.25;;;-1.70;99.90;;;;;;21109641;24;19982;-50
2022/12/13 15:02:55;;;;;;;2.72;1.80;;;-1.80;99.90;;;;;;20063554;24;20026;-58
2022/12/13 15:13:00;;;;;;;3.72;2.33;;;-1.90;99.90;;;;;;20050621;24;20066;31
2022/12/13 15:33:33;;;;;;;5.28;2.65;;;-2.10;99.90;;;;;;19984999;24;20123;-58
2022/12/13 15:43:43;;;;;;;4.40;2.67;;;-2.20;99.90;;;;;;20060854;24;20160;-51
2022/12/13 15:54:03;;;;;;;4.53;2.13;;;-2.40;99.90;;;;;;20032851;24;20051;-57
2022/12/13 16:04:06;;;;;;;3.25;2.20;;;-2.40;99.90;;;;;;20056273;24;20115;-53
2022/12/13 16:14:35;;;;;;;8.10;3.80;;;-2.50;99.90;;;;;;20064257;24;20127;-61
2022/12/13 16:24:37;;;;;;;7.40;3.65;;;-2.50;99.90;;;;;;20058259;24;20055;-57
2022/12/13 16:34:39;;;;;;;4.90;3.08;;;-2.60;99.90;;;;;;20072125;24;20051;-58
2022/12/13 16:44:41;;;;;;;13.85;3.85;;;-2.70;99.90;;;;;;20023054;24;20135;-61
2022/12/13 16:54:43;;;;;;;10.07;3.50;;;-2.60;99.90;;;;;;20067201;24;20115;-47
2022/12/13 17:04:45;;;;;;;19.13;4.97;;;-2.60;99.90;;;;;;20064059;24;20116;-58
2022/12/13 17:14:46;;;;;;;12.05;4.28;;;-2.70;99.90;;;;;;20040098;24;20062;-56
2022/12/13 17:24:48;;;;;;;7.70;4.47;;;-2.70;99.90;;;;;;20022520;24;1304367;-58
2022/12/13 17:34:50;;;;;;;4.10;2.50;;;-2.70;99.90;;;;;;20840429;24;20518;-53
2022/12/13 17:44:52;;;;;;;7.63;3.80;;;-2.70;99.90;;;;;;20040929;24;20367;-55
2022/12/13 17:54:54;;;;;;;6.32;3.50;;;-2.70;99.90;;;;;;20837380;24;20059;-55
2022/12/13 18:04:56;;;;;;;3.60;2.50;;;-2.70;99.90;;;;;;20063293;24;20066;-56
2022/12/13 18:14:58;;;;;;;7.28;4.05;;;-2.70;99.90;;;;;;20063467;24;20072;-57
2022/12/13 18:25:00;;;;;;;10.73;6.05;;;-2.70;99.90;;;;;;20029509;24;20062;-56
2022/12/13 18:35:02;;;;;;;7.93;4.20;;;-2.80;99.90;;;;;;20055042;24;20171;-56
2022/12/13 18:45:08;;;;;;;8.57;4.88;;;-2.90;99.90;;;;;;20060691;24;20580;-57
2022/12/13 18:55:10;;;;;;;7.45;3.85;;;-3.00;99.90;;;;;;20043734;24;20062;-55
2022/12/13 19:05:12;;;;;;;6.90;3.40;;;-3.10;99.90;;;;;;20079950;24;20068;-56
2022/12/13 19:15:30;;;;;;;5.60;3.33;;;-3.00;99.90;;;;;;20020415;24;20120;-58
2022/12/13 19:25:32;;;;;;;3.13;1.80;;;-3.00;99.90;;;;;;20021367;24;20549;-53
2022/12/13 19:35:35;;;;;;;6.53;3.83;;;-3.00;99.90;;;;;;20060902;24;20071;-56
2022/12/13 19:45:37;;;;;;;7.85;4.03;;;-3.00;99.90;;;;;;20055693;24;20111;-55
2022/12/13 19:55:46;;;;;;;8.90;5.15;;;-2.90;99.90;;;;;;20849605;24;20372;-58
2022/12/13 20:05:57;;;;;;;6.65;3.55;;;-2.90;99.90;;;;;;20073080;24;20047;-54
2022/12/13 20:16:18;;;;;;;5.33;3.33;;;-2.90;99.90;;;;;;20005196;24;20066;-57
2022/12/13 20:36:37;;;;;;;9.48;5.53;;;-2.90;99.90;;;;;;20830937;24;19925;-58
2022/12/13 20:46:41;;;;;;;10.38;5.90;;;-3.00;99.90;;;;;;20051786;24;20347;-51
2022/12/13 20:56:43;;;;;;;11.70;6.68;;;-3.00;99.90;;;;;;20047667;24;20063;-57
2022/12/13 21:06:45;;;;;;;10.48;6.25;;;-3.00;99.90;;;;;;20047511;24;20062;-54
2022/12/13 21:16:48;;;;;;;26.40;5.85;;;-3.10;99.90;;;;;;20074033;24;20112;-60
2022/12/13 21:26:52;;;;;;;10.18;6.15;;;-3.00;99.90;;;;;;20023879;24;20418;-55
2022/12/13 21:36:54;;;;;;;27.63;8.00;;;-3.00;99.90;;;;;;20067742;24;20066;-59
2022/12/13 21:46:55;;;;;;;11.80;5.95;;;-3.00;99.90;;;;;;20057776;24;20135;-57
2022/12/13 22:07:24;;;;;;;9.77;4.97;;;-2.90;99.90;;;;;;20062296;24;20120;-55
2022/12/13 22:17:27;;;;;;;8.57;4.53;;;-2.90;99.90;;;;;;20058573;24;20059;-57
2022/12/13 22:27:29;;;;;;;8.93;4.20;;;-2.90;99.90;;;;;;20027146;24;20135;-58
2022/12/13 22:37:32;;;;;;;10.75;5.93;;;-2.90;99.90;;;;;;20062277;24;20425;-54
2022/12/13 22:47:34;;;;;;;9.73;5.57;;;-2.90;99.90;;;;;;20061383;24;20059;-60
2022/12/13 22:57:35;;;;;;;9.27;5.47;;;-2.90;99.90;;;;;;20064152;24;20919;-56
2022/12/13 23:07:37;;;;;;;5.63;3.33;;;-3.00;99.90;;;;;;20036692;24;20063;-57
2022/12/13 23:17:39;;;;;;;3.90;2.30;;;-2.90;99.90;;;;;;20016153;24;20055;-58
2022/12/13 23:27:41;;;;;;;2.97;1.60;;;-2.70;99.90;;;;;;20053638;24;20826;-46
2022/12/13 23:37:43;;;;;;;2.65;1.48;;;-2.60;99.90;;;;;;20055569;24;20123;-56
2022/12/13 23:47:44;;;;;;;2.92;1.60;;;-2.50;99.90;;;;;;20053147;24;20948;-54
2022/12/13 23:57:46;;;;;;;2.58;1.20;;;-2.60;99.90;;;;;;20060783;24;20054;-53
